Time;durP1;ratioP1;P1;durP2;ratioP2;P2;SDS_P1;SDS_P2;PMS_P1;PMS_P2;Temp;Humidity;BMP_temperature;BMP_pressure;BME280_temperature;BME280_humidity;BME280_pressure;Samples;Min_cycle;Max_cycle;Signal;HPM_P1;HPM_P2
2022/09/30 00:00:53;;;;;;;24.33;19.48;;;;;;;;;;5072951;28;20025;-60
2022/09/30 00:03:19;;;;;;;23.80;19.42;;;;;;;;;;5074363;28;20127;-63
2022/09/30 00:05:45;;;;;;;25.85;21.17;;;;;;;;;;5074302;28;20025;-60
2022/09/30 00:08:10;;;;;;;26.42;20.30;;;;;;;;;;5073905;28;20052;-60
2022/09/30 00:10:36;;;;;;;25.80;20.95;;;;;;;;;;5073860;28;20115;-60
2022/09/30 00:13:02;;;;;;;25.15;20.27;;;;;;;;;;5072697;28;20021;-60
2022/09/30 00:15:28;;;;;;;26.08;20.02;;;;;;;;;;5073756;28;20574;-60
2022/09/30 00:17:54;;;;;;;26.95;21.17;;;;;;;;;;5073578;28;20021;-59
2022/09/30 00:20:21;;;;;;;26.27;19.65;;;;;;;;;;5072901;28;20016;-60
2022/09/30 00:22:46;;;;;;;26.00;20.17;;;;;;;;;;5073759;28;20138;-61
2022/09/30 00:25:12;;;;;;;26.50;19.17;;;;;;;;;;5073907;28;20078;-61
2022/09/30 00:27:38;;;;;;;25.02;19.15;;;;;;;;;;5073161;28;20036;-60
2022/09/30 00:30:05;;;;;;;24.17;18.98;;;;;;;;;;5073765;28;20425;-61
2022/09/30 00:32:31;;;;;;;25.48;19.58;;;;;;;;;;5072579;28;20419;-60
2022/09/30 00:34:57;;;;;;;24.83;19.23;;;;;;;;;;5072334;28;20024;-62
2022/09/30 00:37:23;;;;;;;25.00;19.58;;;;;;;;;;5073215;28;20107;-55
2022/09/30 00:39:48;;;;;;;26.75;20.58;;;;;;;;;;5073295;28;20025;-61
2022/09/30 00:42:15;;;;;;;27.58;20.58;;;;;;;;;;5072148;28;20046;-60
2022/09/30 00:44:52;;;;;;;26.90;20.83;;;;;;;;;;5073323;28;20505;-61
2022/09/30 00:47:37;;;;;;;26.50;21.30;;;;;;;;;;5073095;28;20541;-58
2022/09/30 00:50:18;;;;;;;27.95;20.80;;;;;;;;;;5072946;28;20028;-61
2022/09/30 00:52:46;;;;;;;26.90;19.45;;;;;;;;;;5073091;28;20031;-61
2022/09/30 00:55:20;;;;;;;26.02;21.17;;;;;;;;;;5073235;28;20071;-59
2022/09/30 00:57:46;;;;;;;26.20;20.25;;;;;;;;;;5072421;28;20564;-59
2022/09/30 01:00:12;;;;;;;27.95;20.50;;;;;;;;;;5072208;28;20111;-60
2022/09/30 01:02:38;;;;;;;28.33;20.58;;;;;;;;;;5071527;28;20111;-60
2022/09/30 01:05:04;;;;;;;27.67;21.08;;;;;;;;;;5072810;28;20422;-60
2022/09/30 01:07:30;;;;;;;27.23;20.35;;;;;;;;;;5072422;28;20028;-59
2022/09/30 01:09:56;;;;;;;25.20;19.88;;;;;;;;;;5072820;28;20357;-59
2022/09/30 01:12:24;;;;;;;31.00;20.85;;;;;;;;;;5072776;28;20044;-55
2022/09/30 01:14:52;;;;;;;29.20;20.52;;;;;;;;;;5071522;28;20028;-62
2022/09/30 01:17:27;;;;;;;28.52;21.10;;;;;;;;;;5072434;28;20040;-61
2022/09/30 01:19:54;;;;;;;28.30;21.92;;;;;;;;;;5072444;28;20028;-54
2022/09/30 01:22:38;;;;;;;26.23;20.10;;;;;;;;;;5070872;28;20029;-60
2022/09/30 01:25:07;;;;;;;28.92;19.40;;;;;;;;;;5072288;28;20032;-57
2022/09/30 01:27:52;;;;;;;27.30;20.02;;;;;;;;;;5070991;28;20484;-63
2022/09/30 01:30:50;;;;;;;26.83;20.60;;;;;;;;;;5072344;28;20055;-60
2022/09/30 01:33:20;;;;;;;27.42;21.08;;;;;;;;;;5038737;28;20033;-60
2022/09/30 01:36:05;;;;;;;28.67;21.55;;;;;;;;;;5072388;28;20388;-58
2022/09/30 01:38:33;;;;;;;30.27;20.80;;;;;;;;;;5072119;28;20017;-61
2022/09/30 01:40:59;;;;;;;;;;;;;;;;;;5072626;28;20024;-60
2022/09/30 01:43:44;;;;;;;25.10;20.00;;;;;;;;;;5072143;28;19908;-59
2022/09/30 01:46:10;;;;;;;29.35;20.85;;;;;;;;;;5070943;28;20056;-60
2022/09/30 01:48:42;;;;;;;28.73;20.98;;;;;;;;;;5071879;28;20025;-62
2022/09/30 01:51:12;;;;;;;28.90;21.92;;;;;;;;;;5070873;28;20024;-60
2022/09/30 01:53:46;;;;;;;27.63;19.95;;;;;;;;;;5072228;28;20035;-60
2022/09/30 01:56:22;;;;;;;27.58;20.40;;;;;;;;;;5072337;28;20031;-60
2022/09/30 01:58:58;;;;;;;29.95;20.90;;;;;;;;;;5070527;28;20036;-61
2022/09/30 02:01:26;;;;;;;24.80;19.85;;;;;;;;;;5071961;28;20035;-60
2022/09/30 02:03:55;;;;;;;28.42;20.45;;;;;;;;;;5071964;28;20032;-62
2022/09/30 02:06:27;;;;;;;27.55;21.17;;;;;;;;;;5071911;28;20475;-60
2022/09/30 02:09:06;;;;;;;26.67;20.52;;;;;;;;;;5071781;28;20102;-59
2022/09/30 02:11:35;;;;;;;27.50;20.90;;;;;;;;;;5071603;28;20490;-61
2022/09/30 02:14:39;;;;;;;27.83;20.95;;;;;;;;;;5071813;28;20373;-60
2022/09/30 02:17:20;;;;;;;30.20;20.58;;;;;;;;;;5009686;28;20034;-60
2022/09/30 02:19:46;;;;;;;28.35;20.45;;;;;;;;;;5009771;28;20486;-59
2022/09/30 02:22:21;;;;;;;29.02;19.60;;;;;;;;;;5045096;28;20039;-60
2022/09/30 02:24:51;;;;;;;28.25;19.48;;;;;;;;;;5070580;28;20021;-59
2022/09/30 02:27:20;;;;;;;27.40;20.23;;;;;;;;;;5071717;28;20482;-62
2022/09/30 02:29:49;;;;;;;26.65;19.20;;;;;;;;;;5071689;28;20107;-61
2022/09/30 02:32:17;;;;;;;29.23;21.75;;;;;;;;;;5071540;28;20033;-61
2022/09/30 02:34:46;;;;;;;28.13;20.98;;;;;;;;;;5071943;28;20028;-61
2022/09/30 02:37:15;;;;;;;30.77;21.73;;;;;;;;;;5070604;28;20063;-62
2022/09/30 02:39:41;;;;;;;27.33;21.38;;;;;;;;;;5070346;28;20050;-60
2022/09/30 02:42:12;;;;;;;28.17;20.92;;;;;;;;;;5071595;28;20504;-59
2022/09/30 02:44:38;;;;;;;29.23;20.00;;;;;;;;;;5071674;28;20380;-62
2022/09/30 02:47:08;;;;;;;29.05;21.85;;;;;;;;;;5071615;28;20017;-60
2022/09/30 02:49:49;;;;;;;29.95;22.20;;;;;;;;;;5069845;28;20052;-58
2022/09/30 02:52:22;;;;;;;28.50;21.52;;;;;;;;;;5070194;28;20032;-62
2022/09/30 02:54:48;;;;;;;26.65;20.98;;;;;;;;;;5061362;28;20100;-60
2022/09/30 02:57:17;;;;;;;31.52;21.75;;;;;;;;;;5050054;28;20119;-58
2022/09/30 02:59:44;;;;;;;27.45;21.02;;;;;;;;;;5049947;28;20108;-58
2022/09/30 03:02:10;;;;;;;28.58;21.65;;;;;;;;;;5051265;28;20071;-59
2022/09/30 03:04:38;;;;;;;28.95;22.73;;;;;;;;;;5050093;28;20488;-60
2022/09/30 03:07:04;;;;;;;30.73;22.73;;;;;;;;;;5050086;28;20053;-61
2022/09/30 03:09:30;;;;;;;30.17;21.67;;;;;;;;;;5049922;28;20032;-62
2022/09/30 03:12:11;;;;;;;27.90;21.15;;;;;;;;;;5051224;28;20477;-61
2022/09/30 03:14:44;;;;;;;33.30;22.60;;;;;;;;;;5051198;28;20105;-59
2022/09/30 03:17:21;;;;;;;27.45;20.90;;;;;;;;;;5049909;28;20108;-60
2022/09/30 03:19:47;;;;;;;25.52;20.08;;;;;;;;;;5049893;28;20025;-60
2022/09/30 03:22:13;;;;;;;25.42;21.10;;;;;;;;;;5051231;28;20086;-58
2022/09/30 03:24:39;;;;;;;28.33;20.90;;;;;;;;;;5054917;28;20032;-60
2022/09/30 03:27:11;;;;;;;30.88;22.13;;;;;;;;;;5053346;28;20526;-60
2022/09/30 03:29:37;;;;;;;27.98;21.42;;;;;;;;;;5054675;28;20109;-62
2022/09/30 03:32:09;;;;;;;33.17;21.45;;;;;;;;;;5054924;28;20508;-60
2022/09/30 03:34:44;;;;;;;28.85;20.42;;;;;;;;;;5055319;28;20045;-61
2022/09/30 03:37:16;;;;;;;30.20;21.15;;;;;;;;;;5054944;28;20361;-59
2022/09/30 03:39:45;;;;;;;26.65;21.27;;;;;;;;;;5054839;28;20562;-58
2022/09/30 03:42:20;;;;;;;29.88;21.17;;;;;;;;;;5053215;28;20028;-61
2022/09/30 03:44:52;;;;;;;28.90;20.88;;;;;;;;;;5055034;28;20118;-60
2022/09/30 03:47:18;;;;;;;31.60;23.48;;;;;;;;;;5054098;28;20033;-59
2022/09/30 03:49:56;;;;;;;30.52;21.70;;;;;;;;;;5054059;28;20036;-59
2022/09/30 04:59:55;;;;;;;30.70;20.40;;;;;;;;;;5937570;23;20047;-68
2022/09/30 05:02:21;;;;;;;25.92;21.33;;;;;;;;;;5091131;28;20047;-65
2022/09/30 05:04:47;;;;;;;29.02;21.25;;;;;;;;;;5091144;28;20517;-67
2022/09/30 05:07:13;;;;;;;28.92;20.60;;;;;;;;;;5091313;28;20100;-67
2022/09/30 05:09:39;;;;;;;29.17;21.05;;;;;;;;;;5089435;28;20016;-67
2022/09/30 05:12:06;;;;;;;27.65;21.23;;;;;;;;;;5069478;28;20021;-67
2022/09/30 05:14:32;;;;;;;27.63;21.17;;;;;;;;;;5070517;28;20039;-68
2022/09/30 05:16:58;;;;;;;29.67;22.52;;;;;;;;;;5068961;28;20059;-67
2022/09/30 05:19:24;;;;;;;28.90;20.88;;;;;;;;;;5070553;28;20507;-65
2022/09/30 05:21:51;;;;;;;29.67;21.08;;;;;;;;;;5070353;28;20012;-66
2022/09/30 05:24:17;;;;;;;31.98;21.40;;;;;;;;;;5071030;28;20035;-66
2022/09/30 05:26:43;;;;;;;29.10;21.70;;;;;;;;;;5066315;22;20121;-54
2022/09/30 05:29:09;;;;;;;30.65;23.58;;;;;;;;;;5032086;28;20143;-55
2022/09/30 05:31:35;;;;;;;30.20;21.33;;;;;;;;;;5031204;28;20028;-52
2022/09/30 05:34:03;;;;;;;31.35;22.33;;;;;;;;;;5013795;28;20029;-53
2022/09/30 05:36:29;;;;;;;32.10;21.88;;;;;;;;;;5031633;28;20095;-51
2022/09/30 05:38:55;;;;;;;32.80;22.13;;;;;;;;;;5031621;28;20570;-55
2022/09/30 05:41:21;;;;;;;29.67;21.95;;;;;;;;;;5032203;28;20030;-55
2022/09/30 05:43:48;;;;;;;33.97;21.65;;;;;;;;;;5032780;28;20025;-56
2022/09/30 05:46:14;;;;;;;29.63;21.20;;;;;;;;;;5032173;28;20072;-56
2022/09/30 05:48:40;;;;;;;28.75;20.40;;;;;;;;;;5032866;28;20164;-57
2022/09/30 05:51:08;;;;;;;27.95;21.42;;;;;;;;;;5032143;28;20052;-58
2022/09/30 05:53:37;;;;;;;29.17;19.95;;;;;;;;;;5032622;28;20033;-56
2022/09/30 05:56:03;;;;;;;29.52;20.58;;;;;;;;;;5032267;28;20468;-53
2022/09/30 05:58:30;;;;;;;28.90;20.48;;;;;;;;;;5032543;28;20048;-54
2022/09/30 06:00:56;;;;;;;30.02;20.75;;;;;;;;;;5032297;28;20030;-50
2022/09/30 06:03:22;;;;;;;27.98;19.50;;;;;;;;;;5032544;28;20096;-54
2022/09/30 06:05:48;;;;;;;28.20;19.92;;;;;;;;;;5032632;28;20021;-54
2022/09/30 06:08:15;;;;;;;26.83;19.25;;;;;;;;;;5032382;28;20033;-57
2022/09/30 06:10:41;;;;;;;25.63;18.80;;;;;;;;;;5030945;28;20026;-52
2022/09/30 06:13:08;;;;;;;25.13;18.73;;;;;;;;;;5032517;28;20025;-56
2022/09/30 06:15:35;;;;;;;27.08;20.20;;;;;;;;;;5031969;28;20026;-57
2022/09/30 06:18:01;;;;;;;28.00;20.43;;;;;;;;;;5029430;28;20108;-56
2022/09/30 06:20:27;;;;;;;28.25;19.52;;;;;;;;;;5031967;28;20280;-55
2022/09/30 06:22:53;;;;;;;29.27;19.85;;;;;;;;;;5032270;28;20366;-53
2022/09/30 06:25:20;;;;;;;28.60;19.58;;;;;;;;;;5031998;28;20120;-54
2022/09/30 06:27:46;;;;;;;27.20;20.83;;;;;;;;;;5012846;28;20032;-54
2022/09/30 06:30:13;;;;;;;29.55;19.85;;;;;;;;;;5012222;28;20049;-58
2022/09/30 06:32:39;;;;;;;29.20;19.27;;;;;;;;;;5012992;28;20060;-57
2022/09/30 06:35:05;;;;;;;29.80;20.48;;;;;;;;;;5021454;28;20481;-53
2022/09/30 06:37:31;;;;;;;27.25;20.27;;;;;;;;;;5032377;28;20097;-56
2022/09/30 06:39:57;;;;;;;29.42;20.88;;;;;;;;;;5031994;28;20021;-57
2022/09/30 06:42:23;;;;;;;24.42;18.30;;;;;;;;;;5032035;28;20504;-56
2022/09/30 06:44:50;;;;;;;25.90;18.40;;;;;;;;;;5031987;28;20048;-56
2022/09/30 06:47:17;;;;;;;24.80;17.85;;;;;;;;;;5032119;28;20033;-54
2022/09/30 06:49:44;;;;;;;24.60;17.38;;;;;;;;;;5031757;28;20037;-58
2022/09/30 06:52:11;;;;;;;25.40;17.85;;;;;;;;;;5022260;28;20026;-57
2022/09/30 06:54:38;;;;;;;26.83;17.95;;;;;;;;;;5012319;28;20014;-52
2022/09/30 06:57:04;;;;;;;27.17;18.13;;;;;;;;;;5013270;28;20105;-54
2022/09/30 06:59:30;;;;;;;28.75;18.05;;;;;;;;;;5015610;28;20108;-51
2022/09/30 07:01:56;;;;;;;23.45;17.55;;;;;;;;;;5015337;28;20473;-56
2022/09/30 07:04:22;;;;;;;26.55;18.02;;;;;;;;;;5016053;28;20109;-51
2022/09/30 07:06:48;;;;;;;26.92;17.80;;;;;;;;;;5016148;28;20017;-54
2022/09/30 07:09:14;;;;;;;25.88;18.88;;;;;;;;;;5016144;28;20026;-56
2022/09/30 07:11:40;;;;;;;26.73;19.30;;;;;;;;;;5014151;28;20061;-59
2022/09/30 07:14:07;;;;;;;25.77;18.05;;;;;;;;;;5015858;28;20030;-56
2022/09/30 07:16:33;;;;;;;26.05;17.45;;;;;;;;;;5015770;28;20026;-52
2022/09/30 07:19:03;;;;;;;24.77;18.33;;;;;;;;;;5023044;28;20045;-59
2022/09/30 07:21:30;;;;;;;27.33;19.25;;;;;;;;;;5033907;28;20504;-59
2022/09/30 07:23:59;;;;;;;27.25;18.25;;;;;;;;;;5035502;28;20072;-57
2022/09/30 07:26:25;;;;;;;24.98;17.50;;;;;;;;;;5035117;28;20040;-59
2022/09/30 07:28:52;;;;;;;26.50;18.08;;;;;;;;;;5035271;28;20025;-64
2022/09/30 07:31:18;;;;;;;24.77;17.45;;;;;;;;;;5033990;28;20030;-64
2022/09/30 07:33:45;;;;;;;27.20;17.20;;;;;;;;;;5034095;28;20067;-64
2022/09/30 07:36:11;;;;;;;25.58;17.35;;;;;;;;;;5035339;28;20373;-65
2022/09/30 07:38:39;;;;;;;25.23;17.55;;;;;;;;;;5036367;28;20032;-63
2022/09/30 07:41:15;;;;;;;27.52;18.25;;;;;;;;;;5035698;28;20032;-64
2022/09/30 07:43:45;;;;;;;25.88;17.02;;;;;;;;;;5035960;28;20174;-60
2022/09/30 07:46:15;;;;;;;25.42;18.00;;;;;;;;;;5036659;28;20022;-64
2022/09/30 07:48:43;;;;;;;26.45;18.75;;;;;;;;;;5036465;28;20481;-68
2022/09/30 07:51:12;;;;;;;27.20;18.33;;;;;;;;;;5034223;28;20037;-69
2022/09/30 07:53:39;;;;;;;28.92;19.55;;;;;;;;;;5035974;28;20029;-69
2022/09/30 07:56:06;;;;;;;25.38;18.02;;;;;;;;;;5035455;28;20030;-69
2022/09/30 07:58:32;;;;;;;26.40;18.42;;;;;;;;;;5035476;28;20032;-69
2022/09/30 08:00:58;;;;;;;27.25;18.48;;;;;;;;;;5035010;28;20017;-69
2022/09/30 08:03:24;;;;;;;28.58;19.65;;;;;;;;;;5034792;28;20108;-67
2022/09/30 08:05:51;;;;;;;26.90;19.08;;;;;;;;;;5033522;28;20608;-68
2022/09/30 08:08:17;;;;;;;30.13;19.50;;;;;;;;;;5034550;28;20105;-67
2022/09/30 08:10:43;;;;;;;24.40;18.27;;;;;;;;;;5034666;28;20022;-67
2022/09/30 08:13:15;;;;;;;27.50;18.80;;;;;;;;;;5034779;28;20042;-67
2022/09/30 08:15:41;;;;;;;27.58;18.73;;;;;;;;;;5034666;28;20028;-68
2022/09/30 08:18:07;;;;;;;26.02;18.73;;;;;;;;;;5034326;28;20041;-67
2022/09/30 08:20:33;;;;;;;26.80;18.17;;;;;;;;;;5032834;28;20033;-68
2022/09/30 08:22:59;;;;;;;24.52;18.35;;;;;;;;;;5034262;28;20029;-60
2022/09/30 08:25:26;;;;;;;28.77;19.20;;;;;;;;;;5035561;28;20029;-61
2022/09/30 08:27:52;;;;;;;26.73;18.75;;;;;;;;;;5034007;28;20523;-59
2022/09/30 08:30:18;;;;;;;25.63;19.48;;;;;;;;;;5032506;28;20030;-58
2022/09/30 08:32:44;;;;;;;27.40;19.80;;;;;;;;;;5033978;28;20033;-62
2022/09/30 08:35:10;;;;;;;27.80;19.50;;;;;;;;;;5033407;28;20049;-61
2022/09/30 08:37:36;;;;;;;26.08;19.25;;;;;;;;;;5033193;28;20017;-60
2022/09/30 08:40:03;;;;;;;23.75;17.92;;;;;;;;;;5033560;28;20036;-62
2022/09/30 08:42:29;;;;;;;25.70;18.35;;;;;;;;;;5033917;28;20057;-62
2022/09/30 08:45:02;;;;;;;25.02;19.30;;;;;;;;;;5033869;28;20022;-61
2022/09/30 08:47:31;;;;;;;26.30;19.00;;;;;;;;;;5033953;28;20022;-61
2022/09/30 08:50:02;;;;;;;29.25;18.85;;;;;;;;;;5033572;28;20021;-60
2022/09/30 08:52:36;;;;;;;29.35;18.83;;;;;;;;;;5033705;28;20053;-65
2022/09/30 08:55:03;;;;;;;24.83;18.83;;;;;;;;;;5033480;28;20101;-59
2022/09/30 08:57:35;;;;;;;24.08;18.70;;;;;;;;;;5030523;28;20025;-60
2022/09/30 09:00:05;;;;;;;25.10;17.33;;;;;;;;;;5018674;28;20033;-61
2022/09/30 09:02:33;;;;;;;25.88;18.67;;;;;;;;;;5013638;28;20033;-61
2022/09/30 09:05:03;;;;;;;26.25;19.63;;;;;;;;;;5013658;28;20537;-55
2022/09/30 09:07:32;;;;;;;24.13;18.67;;;;;;;;;;5013671;28;20029;-62
2022/09/30 09:10:15;;;;;;;26.10;19.00;;;;;;;;;;5013270;28;20014;-60
2022/09/30 09:13:01;;;;;;;24.17;17.83;;;;;;;;;;5013668;28;20163;-60
2022/09/30 09:15:35;;;;;;;26.55;18.73;;;;;;;;;;5013297;28;20048;-60
2022/09/30 09:18:16;;;;;;;26.05;18.08;;;;;;;;;;5013574;28;20030;-61
2022/09/30 09:21:03;;;;;;;26.23;19.33;;;;;;;;;;5012566;28;20060;-59
2022/09/30 09:23:32;;;;;;;25.83;18.25;;;;;;;;;;4973271;28;20048;-62
2022/09/30 09:25:58;;;;;;;27.75;19.85;;;;;;;;;;5013101;28;20378;-60
2022/09/30 09:28:28;;;;;;;25.75;18.45;;;;;;;;;;5013305;28;20054;-59
2022/09/30 09:30:57;;;;;;;24.10;18.05;;;;;;;;;;5013226;28;20091;-60
2022/09/30 09:33:28;;;;;;;24.48;19.20;;;;;;;;;;5013454;28;20380;-60
2022/09/30 09:36:01;;;;;;;25.60;19.15;;;;;;;;;;5013260;28;20018;-58
2022/09/30 09:38:35;;;;;;;29.08;18.60;;;;;;;;;;5013107;28;20018;-58
2022/09/30 09:41:07;;;;;;;25.27;19.42;;;;;;;;;;5011504;28;20058;-61
2022/09/30 09:43:47;;;;;;;26.13;17.95;;;;;;;;;;5012847;28;20029;-59
2022/09/30 09:46:18;;;;;;;23.15;17.92;;;;;;;;;;5013271;28;20029;-65
2022/09/30 09:48:44;;;;;;;25.13;18.45;;;;;;;;;;5013117;28;20037;-65
2022/09/30 09:51:13;;;;;;;27.17;20.38;;;;;;;;;;5012972;28;20092;-64
2022/09/30 09:53:44;;;;;;;24.65;19.38;;;;;;;;;;5013027;28;20400;-63
2022/09/30 09:56:17;;;;;;;24.10;18.98;;;;;;;;;;5013128;28;20022;-67
2022/09/30 09:59:02;;;;;;;22.80;18.58;;;;;;;;;;5028386;28;20030;-64
2022/09/30 10:01:33;;;;;;;23.35;17.90;;;;;;;;;;5025004;28;20109;-64
2022/09/30 10:04:14;;;;;;;24.77;18.40;;;;;;;;;;5022033;28;20022;-65
2022/09/30 10:06:51;;;;;;;25.33;18.25;;;;;;;;;;5014191;28;20028;-65
2022/09/30 10:09:39;;;;;;;25.90;18.90;;;;;;;;;;5024536;28;20124;-64
2022/09/30 10:12:05;;;;;;;;;;;;;;;;;;5032972;28;20091;-64
2022/09/30 10:14:45;;;;;;;22.25;17.08;;;;;;;;;;5032830;28;19905;-64
2022/09/30 10:17:18;;;;;;;22.80;17.83;;;;;;;;;;5032806;28;20101;-64
2022/09/30 10:19:50;;;;;;;25.48;18.88;;;;;;;;;;5032509;28;20027;-65
2022/09/30 10:22:16;;;;;;;23.80;17.80;;;;;;;;;;5032605;28;20075;-64
2022/09/30 10:24:42;;;;;;;28.35;19.50;;;;;;;;;;5022277;28;20093;-66
2022/09/30 10:27:29;;;;;;;23.25;17.55;;;;;;;;;;5013481;28;20375;-63
2022/09/30 10:29:55;;;;;;;24.08;16.38;;;;;;;;;;5015181;28;20036;-62
2022/09/30 10:32:21;;;;;;;23.83;17.23;;;;;;;;;;5037391;28;20096;-65
2022/09/30 10:34:54;;;;;;;23.60;18.73;;;;;;;;;;5055364;28;20053;-65
2022/09/30 10:37:21;;;;;;;23.92;18.38;;;;;;;;;;5055094;28;20067;-64
2022/09/30 10:40:14;;;;;;;26.08;18.75;;;;;;;;;;5054836;28;20451;-65
2022/09/30 10:42:40;;;;;;;24.63;17.65;;;;;;;;;;5051154;28;20041;-66
2022/09/30 10:45:16;;;;;;;24.58;18.98;;;;;;;;;;5056030;28;20112;-64
2022/09/30 10:47:48;;;;;;;25.50;17.98;;;;;;;;;;5055806;28;20017;-63
2022/09/30 10:50:19;;;;;;;23.52;18.15;;;;;;;;;;5054108;28;20028;-64
2022/09/30 10:52:56;;;;;;;23.27;18.83;;;;;;;;;;5055811;28;20140;-65
2022/09/30 10:55:22;;;;;;;24.30;18.23;;;;;;;;;;5055970;28;20072;-62
2022/09/30 10:57:49;;;;;;;25.20;18.92;;;;;;;;;;5055790;28;20032;-64
2022/09/30 11:00:18;;;;;;;25.48;18.73;;;;;;;;;;5055719;28;20025;-65
2022/09/30 11:02:50;;;;;;;23.65;19.15;;;;;;;;;;5055664;28;20025;-60
2022/09/30 11:05:19;;;;;;;24.83;18.13;;;;;;;;;;5055703;28;20025;-64
2022/09/30 11:07:48;;;;;;;23.80;18.50;;;;;;;;;;5054166;28;20021;-63
2022/09/30 11:10:33;;;;;;;24.73;18.58;;;;;;;;;;5053724;28;20112;-64
2022/09/30 11:12:59;;;;;;;22.58;19.38;;;;;;;;;;5055514;28;20028;-64
2022/09/30 11:15:30;;;;;;;24.95;19.83;;;;;;;;;;5055151;28;20025;-64
2022/09/30 11:18:01;;;;;;;26.20;19.77;;;;;;;;;;5055554;28;20033;-66
2022/09/30 11:20:30;;;;;;;24.65;20.88;;;;;;;;;;5019646;28;20053;-64
2022/09/30 11:22:56;;;;;;;23.42;19.40;;;;;;;;;;5014822;28;20029;-64
2022/09/30 11:25:40;;;;;;;21.73;18.38;;;;;;;;;;5016095;28;20033;-62
2022/09/30 11:28:12;;;;;;;23.88;20.70;;;;;;;;;;5015085;28;20022;-65
2022/09/30 11:30:42;;;;;;;22.58;18.88;;;;;;;;;;5014765;28;20113;-65
2022/09/30 11:33:11;;;;;;;23.88;18.73;;;;;;;;;;5015458;28;20446;-64
2022/09/30 11:35:50;;;;;;;22.13;19.73;;;;;;;;;;5015298;28;20112;-66
2022/09/30 11:38:25;;;;;;;23.27;19.13;;;;;;;;;;5015591;28;20122;-64
2022/09/30 11:41:08;;;;;;;25.23;19.13;;;;;;;;;;5014745;28;20088;-66
2022/09/30 11:43:34;;;;;;;20.38;18.00;;;;;;;;;;5013789;28;20440;-63
2022/09/30 11:46:16;;;;;;;23.73;18.17;;;;;;;;;;5014628;28;20022;-65
2022/09/30 11:48:51;;;;;;;23.73;18.83;;;;;;;;;;5014361;28;20048;-65
2022/09/30 11:51:36;;;;;;;21.95;17.40;;;;;;;;;;5013128;28;20025;-66
2022/09/30 11:54:05;;;;;;;20.35;18.02;;;;;;;;;;5015163;28;20106;-65
2022/09/30 11:56:31;;;;;;;20.33;17.02;;;;;;;;;;5014668;28;20088;-64
2022/09/30 11:58:59;;;;;;;20.65;17.45;;;;;;;;;;5015021;28;20045;-66
2022/09/30 12:01:38;;;;;;;20.67;18.05;;;;;;;;;;5014530;28;20038;-64
2022/09/30 12:04:17;;;;;;;20.48;17.30;;;;;;;;;;5014605;28;20030;-63
2022/09/30 12:06:52;;;;;;;20.42;17.17;;;;;;;;;;5014529;28;20081;-65
2022/09/30 12:09:25;;;;;;;21.77;18.38;;;;;;;;;;5014039;28;20022;-65
2022/09/30 12:11:57;;;;;;;20.33;17.98;;;;;;;;;;5014837;28;20489;-64
2022/09/30 12:14:49;;;;;;;19.77;17.20;;;;;;;;;;5014472;28;20087;-65
2022/09/30 12:17:31;;;;;;;19.70;17.58;;;;;;;;;;5010847;28;20123;-62
2022/09/30 12:20:27;;;;;;;19.92;17.83;;;;;;;;;;5012794;28;20058;-64
2022/09/30 12:23:13;;;;;;;19.98;16.67;;;;;;;;;;4992488;28;20057;-62
2022/09/30 12:25:41;;;;;;;18.50;16.50;;;;;;;;;;5012642;28;20029;-60
2022/09/30 12:31:23;;;;;;;20.15;15.38;;;;;;;;;;5020516;28;20021;-62
2022/09/30 12:33:49;;;;;;;20.95;16.48;;;;;;;;;;5053839;28;20029;-64
2022/09/30 12:36:24;;;;;;;19.20;15.80;;;;;;;;;;5053158;28;20052;-64
2022/09/30 12:39:09;;;;;;;21.27;16.52;;;;;;;;;;5054223;28;20032;-62
2022/09/30 12:41:35;;;;;;;19.95;17.20;;;;;;;;;;5053780;28;20085;-64
2022/09/30 12:44:33;;;;;;;22.60;17.42;;;;;;;;;;5027326;28;20030;-63
2022/09/30 12:47:18;;;;;;;21.33;17.33;;;;;;;;;;4982621;28;20087;-60
2022/09/30 12:49:45;;;;;;;18.08;15.57;;;;;;;;;;5017352;28;20029;-64
2022/09/30 12:52:16;;;;;;;18.30;15.70;;;;;;;;;;5016685;28;20076;-64
2022/09/30 12:54:47;;;;;;;18.95;16.02;;;;;;;;;;5015631;28;20113;-63
2022/09/30 12:57:17;;;;;;;18.90;16.00;;;;;;;;;;5016047;28;20033;-62
2022/09/30 12:59:54;;;;;;;19.80;16.30;;;;;;;;;;4671943;28;10000278;-63
2022/09/30 13:02:41;;;;;;;22.45;17.05;;;;;;;;;;5031287;28;20397;-64
2022/09/30 13:05:26;;;;;;;18.25;15.60;;;;;;;;;;5015038;28;20437;-63
2022/09/30 13:08:04;;;;;;;17.95;15.85;;;;;;;;;;5013984;28;20799;-64
2022/09/30 13:10:33;;;;;;;17.88;15.50;;;;;;;;;;5030730;28;20032;-64
2022/09/30 13:13:17;;;;;;;19.30;15.25;;;;;;;;;;5029405;28;20041;-62
2022/09/30 13:15:44;;;;;;;17.20;14.50;;;;;;;;;;5030778;28;20477;-62
2022/09/30 13:18:19;;;;;;;20.48;15.45;;;;;;;;;;5030873;28;20026;-64
2022/09/30 13:21:04;;;;;;;17.95;14.50;;;;;;;;;;4676232;28;10000444;-60
2022/09/30 13:23:36;;;;;;;17.67;14.85;;;;;;;;;;5028660;28;20066;-62
2022/09/30 13:26:03;;;;;;;18.10;14.55;;;;;;;;;;5023362;28;20163;-62
2022/09/30 13:28:30;;;;;;;18.90;14.55;;;;;;;;;;5030544;28;20039;-62
2022/09/30 13:31:17;;;;;;;17.77;14.23;;;;;;;;;;5030038;28;20068;-57
2022/09/30 13:34:04;;;;;;;17.90;13.93;;;;;;;;;;5029973;28;20041;-63
2022/09/30 13:36:48;;;;;;;18.33;14.15;;;;;;;;;;5028776;28;20029;-63
2022/09/30 13:39:17;;;;;;;17.48;14.27;;;;;;;;;;5030654;28;20108;-59
2022/09/30 13:41:44;;;;;;;17.33;13.52;;;;;;;;;;5029571;28;20396;-62
2022/09/30 13:44:20;;;;;;;17.92;13.13;;;;;;;;;;5029547;28;20041;-62
2022/09/30 13:46:48;;;;;;;16.67;12.70;;;;;;;;;;5029780;28;20032;-63
2022/09/30 13:49:14;;;;;;;;;;;;;;;;;;5028338;28;20057;-63
2022/09/30 13:51:41;;;;;;;20.25;13.77;;;;;;;;;;5017972;28;19917;-62
2022/09/30 13:54:12;;;;;;;18.05;13.25;;;;;;;;;;5018249;28;20133;-64
2022/09/30 13:56:39;;;;;;;18.10;13.18;;;;;;;;;;5016373;28;20022;-63
2022/09/30 13:59:08;;;;;;;18.77;13.68;;;;;;;;;;5009827;28;20088;-63
2022/09/30 14:01:47;;;;;;;17.10;13.80;;;;;;;;;;5009397;28;20054;-62
2022/09/30 14:04:32;;;;;;;17.05;13.30;;;;;;;;;;5008396;28;20493;-62
2022/09/30 14:07:30;;;;;;;18.38;13.98;;;;;;;;;;5009346;28;20342;-61
2022/09/30 14:09:56;;;;;;;;;;;;;;;;;;4971069;28;20099;-62
2022/09/30 14:12:25;;;;;;;17.73;12.82;;;;;;;;;;5029826;28;19905;-62
2022/09/30 14:15:05;;;;;;;18.42;13.68;;;;;;;;;;5029940;28;20746;-64
2022/09/30 14:17:51;;;;;;;18.48;13.98;;;;;;;;;;5029883;28;20029;-62
2022/09/30 14:20:29;;;;;;;19.48;13.70;;;;;;;;;;5028165;28;20581;-63
2022/09/30 14:22:55;;;;;;;16.98;13.48;;;;;;;;;;5030697;28;20579;-61
2022/09/30 14:25:21;;;;;;;17.90;13.98;;;;;;;;;;5031153;28;20025;-61
2022/09/30 14:28:00;;;;;;;18.63;14.38;;;;;;;;;;4683092;28;10000020;-62
2022/09/30 14:30:26;;;;;;;18.63;14.48;;;;;;;;;;5014421;28;20075;-62
2022/09/30 14:33:01;;;;;;;17.67;13.77;;;;;;;;;;5015918;28;20060;-63
2022/09/30 14:35:28;;;;;;;17.52;14.10;;;;;;;;;;5019102;28;20080;-64
2022/09/30 14:38:06;;;;;;;17.77;13.63;;;;;;;;;;5024200;28;20033;-62
2022/09/30 14:40:33;;;;;;;18.50;14.13;;;;;;;;;;5029539;28;20034;-62
2022/09/30 14:43:01;;;;;;;18.38;14.40;;;;;;;;;;5030526;28;20505;-61
2022/09/30 14:45:29;;;;;;;17.65;13.65;;;;;;;;;;5029075;28;20108;-50
2022/09/30 14:47:57;;;;;;;19.20;14.35;;;;;;;;;;5027724;28;20033;-52
2022/09/30 14:50:26;;;;;;;17.87;13.30;;;;;;;;;;5029042;28;20428;-55
2022/09/30 14:52:55;;;;;;;18.52;14.07;;;;;;;;;;5029072;28;20025;-56
2022/09/30 14:55:27;;;;;;;17.67;14.38;;;;;;;;;;5029422;28;20362;-52
2022/09/30 14:57:53;;;;;;;18.60;14.27;;;;;;;;;;5029150;28;20398;-54
2022/09/30 15:00:30;;;;;;;16.95;14.20;;;;;;;;;;5029189;28;20025;-52
2022/09/30 15:02:56;;;;;;;18.73;14.15;;;;;;;;;;5029162;28;20053;-55
2022/09/30 15:05:22;;;;;;;17.63;13.95;;;;;;;;;;5025726;28;20021;-53
2022/09/30 15:07:48;;;;;;;17.63;14.30;;;;;;;;;;5025093;28;20030;-56
2022/09/30 15:10:20;;;;;;;17.35;13.45;;;;;;;;;;5017874;28;20394;-53
2022/09/30 15:12:47;;;;;;;19.60;14.18;;;;;;;;;;5013877;28;20124;-53
2022/09/30 15:15:24;;;;;;;17.73;13.88;;;;;;;;;;5013846;28;20022;-58
2022/09/30 15:17:53;;;;;;;17.57;13.57;;;;;;;;;;5027774;28;20033;-58
2022/09/30 15:20:25;;;;;;;22.05;14.40;;;;;;;;;;5016097;28;20057;-54
2022/09/30 15:22:52;;;;;;;17.83;13.70;;;;;;;;;;5012764;28;20030;-55
2022/09/30 15:25:19;;;;;;;19.02;13.57;;;;;;;;;;5024323;28;20029;-52
2022/09/30 15:27:46;;;;;;;17.73;13.77;;;;;;;;;;5031534;28;20037;-55
2022/09/30 15:30:14;;;;;;;17.45;14.05;;;;;;;;;;5032683;28;20268;-55
2022/09/30 15:32:42;;;;;;;19.42;13.77;;;;;;;;;;5032885;28;20080;-54
2022/09/30 15:35:21;;;;;;;20.40;13.77;;;;;;;;;;5029198;28;20036;-55
2022/09/30 15:37:47;;;;;;;18.80;13.70;;;;;;;;;;5015261;28;20464;-58
2022/09/30 15:43:14;;;;;;;17.38;12.88;;;;;;;;;;5015636;28;20113;-58
2022/09/30 15:45:44;;;;;;;17.17;13.45;;;;;;;;;;5018249;28;20022;-56
2022/09/30 15:48:12;;;;;;;16.70;13.40;;;;;;;;;;5015825;28;20018;-58
2022/09/30 15:50:39;;;;;;;21.02;14.00;;;;;;;;;;5012872;28;20018;-54
2022/09/30 15:53:05;;;;;;;17.70;13.25;;;;;;;;;;5024114;28;20045;-51